Time;durP1;ratioP1;P1;durP2;ratioP2;P2;SDS_P1;SDS_P2;PMS_P1;PMS_P2;Temp;Humidity;BMP_temperature;BMP_pressure;BME280_temperature;BME280_humidity;BME280_pressure;Samples;Min_cycle;Max_cycle;Signal;HPM_P1;HPM_P2
2022/07/27 00:00:41;;;;;;;1.55;0.70;;;28.10;32.10;;;;;;6254177;28;20043;-73
2022/07/27 00:03:43;;;;;;;1.52;0.77;;;28.10;32.30;;;;;;6254693;28;20041;-73
2022/07/27 00:06:44;;;;;;;1.83;0.80;;;28.10;32.30;;;;;;6251910;28;20036;-73
2022/07/27 00:09:45;;;;;;;2.00;0.70;;;28.10;32.40;;;;;;6270497;28;20037;-73
2022/07/27 00:12:46;;;;;;;1.50;0.65;;;28.00;32.50;;;;;;6270975;28;20128;-73
2022/07/27 00:15:47;;;;;;;0.47;0.45;;;28.00;32.50;;;;;;6271888;28;20029;-73
2022/07/27 00:18:48;;;;;;;7.45;0.60;;;27.90;32.70;;;;;;6271674;28;20060;-73
2022/07/27 00:21:49;;;;;;;1.75;0.80;;;27.80;32.70;;;;;;6270859;28;20588;-74
2022/07/27 00:24:50;;;;;;;4.35;0.70;;;27.60;33.20;;;;;;6255260;28;20040;-73
2022/07/27 00:27:51;;;;;;;1.88;0.60;;;27.50;33.30;;;;;;6272330;28;20041;-74
2022/07/27 00:30:52;;;;;;;4.07;0.60;;;27.50;33.60;;;;;;6271326;28;20052;-73
2022/07/27 00:33:53;;;;;;;3.30;0.77;;;27.40;33.60;;;;;;6270704;28;20033;-73
2022/07/27 00:36:54;;;;;;;1.00;0.75;;;27.40;33.90;;;;;;6270025;28;20453;-73
2022/07/27 00:39:55;;;;;;;1.45;0.80;;;27.30;34.00;;;;;;6270592;28;20053;-73
2022/07/27 00:42:57;;;;;;;1.33;0.68;;;27.20;34.10;;;;;;6248808;28;20036;-73
2022/07/27 00:45:59;;;;;;;1.55;0.70;;;27.20;34.30;;;;;;6246254;28;20033;-73
2022/07/27 00:49:00;;;;;;;1.10;0.75;;;27.10;34.40;;;;;;6266261;28;20083;-73
2022/07/27 00:52:01;;;;;;;1.83;0.60;;;27.10;34.70;;;;;;6270666;28;20049;-72
2022/07/27 00:55:03;;;;;;;0.98;0.90;;;27.00;34.90;;;;;;6270629;28;20095;-72
2022/07/27 00:58:07;;;;;;;1.98;0.82;;;27.00;35.10;;;;;;6274136;28;20094;-73
2022/07/27 01:01:08;;;;;;;6.03;0.60;;;27.00;35.00;;;;;;6272271;28;20429;-73
2022/07/27 01:04:09;;;;;;;0.52;0.52;;;27.00;35.10;;;;;;6269845;28;20063;-73
2022/07/27 01:07:10;;;;;;;1.40;0.60;;;27.00;35.00;;;;;;6270300;28;20127;-71
2022/07/27 01:10:11;;;;;;;0.85;0.77;;;27.10;34.90;;;;;;6244786;28;20041;-74
2022/07/27 01:13:15;;;;;;;0.93;0.57;;;27.00;35.50;;;;;;6277630;28;20033;-72
2022/07/27 01:16:16;;;;;;;3.70;0.57;;;27.10;35.00;;;;;;6268253;28;20036;-72
2022/07/27 01:19:17;;;;;;;0.63;0.60;;;27.20;34.90;;;;;;6269255;28;20041;-72
2022/07/27 01:22:18;;;;;;;1.08;0.70;;;27.20;34.80;;;;;;6249713;28;20045;-72
2022/07/27 01:25:19;;;;;;;3.58;0.80;;;27.10;34.80;;;;;;6270910;28;20532;-72
2022/07/27 01:28:21;;;;;;;4.63;0.93;;;27.20;34.90;;;;;;6270740;28;20044;-72
2022/07/27 01:31:22;;;;;;;0.82;0.70;;;27.20;34.80;;;;;;6268711;28;20064;-72
2022/07/27 01:34:23;;;;;;;0.70;0.70;;;27.20;34.80;;;;;;6268851;28;20141;-73
2022/07/27 01:37:24;;;;;;;1.60;0.63;;;27.20;34.80;;;;;;6268523;28;20041;-72
2022/07/27 01:40:25;;;;;;;2.22;0.80;;;27.20;34.80;;;;;;6249904;28;20032;-71
2022/07/27 01:43:26;;;;;;;2.15;0.70;;;27.20;34.70;;;;;;6259386;28;20037;-71
2022/07/27 01:46:27;;;;;;;3.15;0.95;;;27.20;34.80;;;;;;6244457;28;20033;-71
2022/07/27 01:49:28;;;;;;;1.98;0.57;;;27.20;34.80;;;;;;6266754;28;20048;-73
2022/07/27 01:52:29;;;;;;;1.67;0.88;;;27.10;34.80;;;;;;6269212;28;20037;-73
2022/07/27 01:55:30;;;;;;;4.22;0.70;;;27.10;34.90;;;;;;6268993;28;20485;-73
2022/07/27 01:58:31;;;;;;;1.50;0.50;;;27.10;35.00;;;;;;6268988;28;20053;-73
2022/07/27 02:01:32;;;;;;;5.00;0.80;;;27.10;34.90;;;;;;6270091;28;20049;-73
2022/07/27 02:04:33;;;;;;;5.15;0.93;;;27.10;34.90;;;;;;6280846;28;20041;-73
2022/07/27 02:07:33;;;;;;;1.35;0.65;;;27.10;34.90;;;;;;6267953;28;20453;-73
2022/07/27 02:10:36;;;;;;;3.25;1.00;;;27.10;34.90;;;;;;6268740;28;20357;-73
2022/07/27 02:13:37;;;;;;;3.78;0.80;;;27.10;34.90;;;;;;6268583;28;20033;-73
2022/07/27 02:16:37;;;;;;;1.63;0.60;;;27.00;34.90;;;;;;6263201;28;20362;-73
2022/07/27 02:19:38;;;;;;;1.33;0.75;;;27.00;35.00;;;;;;6268101;28;20037;-73
2022/07/27 02:22:39;;;;;;;1.70;0.55;;;27.00;35.00;;;;;;6267329;28;20045;-72
2022/07/27 02:25:40;;;;;;;1.05;0.52;;;27.10;35.00;;;;;;6268585;28;20434;-72
2022/07/27 02:28:41;;;;;;;3.95;0.60;;;27.10;34.90;;;;;;6251328;28;20037;-72
2022/07/27 02:31:42;;;;;;;1.23;0.70;;;27.10;35.50;;;;;;6252024;28;20025;-73
2022/07/27 02:34:43;;;;;;;2.83;0.50;;;27.00;34.80;;;;;;6267710;28;20064;-72
2022/07/27 02:37:44;;;;;;;2.13;0.90;;;26.90;35.00;;;;;;6251756;28;20116;-73
2022/07/27 02:40:45;;;;;;;1.77;0.77;;;26.70;35.20;;;;;;6252247;28;20036;-73
2022/07/27 02:43:46;;;;;;;1.67;1.13;;;26.60;35.50;;;;;;6239662;28;20034;-71
2022/07/27 02:46:47;;;;;;;1.17;0.65;;;26.50;35.70;;;;;;6243582;28;20040;-73
2022/07/27 02:49:48;;;;;;;0.85;0.70;;;26.50;35.80;;;;;;6227218;28;20052;-73
2022/07/27 02:52:48;;;;;;;2.10;0.60;;;26.40;35.90;;;;;;6246404;28;20042;-73
2022/07/27 02:55:49;;;;;;;1.48;0.57;;;26.20;36.30;;;;;;6253809;28;20059;-74
2022/07/27 02:58:50;;;;;;;3.00;1.02;;;26.00;36.70;;;;;;6273617;28;20032;-73
2022/07/27 03:01:51;;;;;;;3.80;0.80;;;25.80;37.10;;;;;;6273200;28;20060;-72
2022/07/27 03:04:52;;;;;;;10.10;0.85;;;25.70;37.50;;;;;;6270204;28;20039;-72
2022/07/27 03:07:53;;;;;;;1.20;0.63;;;25.60;37.70;;;;;;6273333;28;20135;-72
2022/07/27 03:10:53;;;;;;;5.78;0.90;;;25.60;37.60;;;;;;6272974;28;20048;-72
2022/07/27 03:13:54;;;;;;;2.63;0.68;;;25.50;37.70;;;;;;6260823;28;20064;-73
2022/07/27 03:16:55;;;;;;;1.83;0.80;;;25.50;38.00;;;;;;6249290;28;20053;-73
2022/07/27 03:19:56;;;;;;;1.40;0.80;;;25.50;37.90;;;;;;6231580;28;20045;-72
2022/07/27 03:22:57;;;;;;;1.38;0.80;;;25.60;38.00;;;;;;6247748;28;20349;-72
2022/07/27 03:25:58;;;;;;;1.75;0.60;;;25.70;37.90;;;;;;6273467;28;20029;-72
2022/07/27 03:28:59;;;;;;;6.05;1.00;;;25.90;37.60;;;;;;6255329;28;20049;-72
2022/07/27 03:32:00;;;;;;;3.58;1.00;;;25.80;37.50;;;;;;6272127;28;20454;-72
2022/07/27 03:35:01;;;;;;;5.30;0.75;;;25.80;37.60;;;;;;6254936;28;20109;-72
2022/07/27 03:38:02;;;;;;;3.83;0.82;;;25.90;37.60;;;;;;6271672;28;20485;-72
2022/07/27 03:41:03;;;;;;;1.13;0.90;;;26.00;37.50;;;;;;6255269;28;20033;-72
2022/07/27 03:44:05;;;;;;;0.85;0.80;;;26.00;37.30;;;;;;6258724;28;20103;-72
2022/07/27 03:47:06;;;;;;;2.28;0.63;;;25.80;37.40;;;;;;6230029;28;20488;-73
2022/07/27 03:50:07;;;;;;;1.83;0.70;;;25.70;37.70;;;;;;6229428;28;20041;-72
2022/07/27 03:53:08;;;;;;;1.60;0.70;;;25.50;37.90;;;;;;6246815;28;20041;-72
2022/07/27 03:56:09;;;;;;;4.22;0.80;;;25.50;38.20;;;;;;6246835;28;20109;-73
2022/07/27 03:59:10;;;;;;;8.70;0.90;;;25.50;38.10;;;;;;6246289;28;20412;-72
2022/07/27 04:02:10;;;;;;;1.80;0.90;;;25.30;38.40;;;;;;6248090;28;20115;-72
2022/07/27 04:05:12;;;;;;;1.05;0.52;;;25.20;38.80;;;;;;6269975;28;20063;-73
2022/07/27 04:08:13;;;;;;;2.25;0.65;;;25.00;39.00;;;;;;6253994;28;20116;-73
2022/07/27 04:11:14;;;;;;;5.13;0.95;;;24.90;39.30;;;;;;6269018;28;20514;-72
2022/07/27 04:14:15;;;;;;;5.28;0.88;;;24.80;39.30;;;;;;6254272;28;20033;-72
2022/07/27 04:17:16;;;;;;;1.55;0.85;;;25.00;39.40;;;;;;6272143;28;20382;-72
2022/07/27 04:20:17;;;;;;;3.33;0.88;;;25.00;39.30;;;;;;6271623;28;20041;-72
2022/07/27 04:23:18;;;;;;;5.57;0.70;;;24.90;39.30;;;;;;6253926;28;20052;-72
2022/07/27 04:26:19;;;;;;;1.77;0.88;;;25.00;39.30;;;;;;6270824;28;20037;-72
2022/07/27 04:29:20;;;;;;;3.05;0.93;;;25.00;39.30;;;;;;6270758;28;20041;-72
2022/07/27 04:32:21;;;;;;;1.58;0.88;;;25.10;39.20;;;;;;6269660;28;20491;-72
2022/07/27 04:35:22;;;;;;;1.05;0.70;;;25.20;39.00;;;;;;6252681;28;20062;-72
2022/07/27 04:38:23;;;;;;;0.82;0.60;;;25.20;39.10;;;;;;6269498;28;20040;-72
2022/07/27 04:41:24;;;;;;;5.28;0.90;;;25.10;39.20;;;;;;6252627;28;20373;-72
2022/07/27 04:44:25;;;;;;;1.98;0.80;;;25.00;39.40;;;;;;6267950;28;20037;-73
2022/07/27 04:47:26;;;;;;;4.05;0.80;;;24.80;39.60;;;;;;6253014;28;20040;-73
2022/07/27 04:50:27;;;;;;;1.30;0.80;;;24.70;39.80;;;;;;6270337;28;20099;-73
2022/07/27 04:53:32;;;;;;;1.30;0.80;;;24.60;40.00;;;;;;6252848;28;20043;-72
2022/07/27 04:56:33;;;;;;;3.72;0.90;;;24.60;40.20;;;;;;6252463;28;20037;-74
2022/07/27 04:59:33;;;;;;;2.03;0.90;;;24.70;40.20;;;;;;6254128;28;20045;-74
2022/07/27 05:02:41;;;;;;;1.55;0.90;;;24.80;40.20;;;;;;6251364;28;20083;-75
2022/07/27 05:05:42;;;;;;;4.73;0.87;;;24.90;39.90;;;;;;6269847;28;20749;-75
2022/07/27 05:08:43;;;;;;;7.25;0.80;;;24.90;39.70;;;;;;6252912;28;20049;-75
2022/07/27 05:11:45;;;;;;;3.72;0.88;;;24.90;39.80;;;;;;6266371;28;20063;-75
2022/07/27 05:14:46;;;;;;;2.15;1.10;;;24.90;39.80;;;;;;6262085;28;20370;-74
2022/07/27 05:17:47;;;;;;;1.48;0.90;;;24.90;40.40;;;;;;6243570;28;20048;-74
2022/07/27 05:20:47;;;;;;;3.22;1.27;;;24.90;39.80;;;;;;6270695;28;20095;-74
2022/07/27 05:23:48;;;;;;;16.88;1.30;;;25.00;39.90;;;;;;6270913;28;20412;-74
2022/07/27 05:26:49;;;;;;;1.90;0.65;;;25.10;39.60;;;;;;6270591;28;20037;-75
2022/07/27 05:29:50;;;;;;;2.30;0.82;;;25.20;39.40;;;;;;6266196;28;20037;-74
2022/07/27 05:32:52;;;;;;;3.17;1.10;;;25.20;39.30;;;;;;6237193;28;20045;-74
2022/07/27 05:35:55;;;;;;;3.40;0.70;;;25.00;39.60;;;;;;6270719;28;20049;-73
2022/07/27 05:38:56;;;;;;;5.13;0.90;;;24.80;40.00;;;;;;6271209;28;20508;-74
2022/07/27 05:41:57;;;;;;;7.38;1.10;;;24.60;40.50;;;;;;6270980;28;20032;-73
2022/07/27 05:44:58;;;;;;;4.68;0.90;;;24.50;40.70;;;;;;6266591;28;20036;-76
2022/07/27 05:47:59;;;;;;;6.95;0.98;;;24.50;40.90;;;;;;6253276;28;20424;-76
2022/07/27 05:51:00;;;;;;;1.30;1.10;;;24.40;41.00;;;;;;6253809;28;20405;-76
2022/07/27 05:54:01;;;;;;;6.68;0.75;;;24.30;41.20;;;;;;6261824;28;20064;-76
2022/07/27 05:57:02;;;;;;;0.88;0.70;;;24.20;41.40;;;;;;6246933;28;20049;-76
2022/07/27 06:00:05;;;;;;;1.77;0.90;;;24.10;41.60;;;;;;6262640;28;20049;-74
2022/07/27 06:03:12;;;;;;;4.60;0.80;;;24.00;41.70;;;;;;6259996;28;20041;-75
2022/07/27 06:09:32;;;;;;;10.02;1.13;;;24.10;41.70;;;;;;6255056;28;20036;-74
2022/07/27 06:12:41;;;;;;;6.53;1.08;;;24.30;41.40;;;;;;6266237;28;20037;-75
2022/07/27 06:15:42;;;;;;;5.85;1.55;;;24.50;41.00;;;;;;6268650;28;20040;-75
2022/07/27 06:18:43;;;;;;;9.20;0.93;;;24.90;40.60;;;;;;6268430;28;20060;-75
2022/07/27 06:21:44;;;;;;;3.72;0.90;;;25.10;40.10;;;;;;6250590;28;20110;-75
2022/07/27 06:24:44;;;;;;;3.13;1.05;;;25.30;39.70;;;;;;6268155;28;20048;-76
2022/07/27 06:27:46;;;;;;;5.43;1.10;;;25.40;39.40;;;;;;6266948;28;20127;-74
2022/07/27 06:30:47;;;;;;;4.25;0.80;;;25.60;39.20;;;;;;6268724;28;20057;-74
2022/07/27 06:33:48;;;;;;;4.22;0.80;;;25.80;38.90;;;;;;6251354;28;20065;-75
2022/07/27 06:36:51;;;;;;;1.85;0.90;;;25.90;38.60;;;;;;6251489;28;20037;-74
2022/07/27 06:39:52;;;;;;;5.72;1.05;;;25.90;38.50;;;;;;6267607;28;20122;-74
2022/07/27 06:42:53;;;;;;;30.67;1.33;;;25.90;38.40;;;;;;6267468;28;20096;-77
2022/07/27 06:45:54;;;;;;;13.02;1.10;;;25.80;38.50;;;;;;6243271;28;20116;-74
2022/07/27 06:48:55;;;;;;;11.57;1.00;;;25.60;38.60;;;;;;6268018;28;20365;-76
2022/07/27 06:51:56;;;;;;;2.70;0.82;;;25.40;38.90;;;;;;6249563;28;20094;-76
2022/07/27 06:54:57;;;;;;;6.63;1.00;;;25.50;39.00;;;;;;6250823;28;20056;-74
2022/07/27 06:57:58;;;;;;;4.97;1.00;;;25.70;38.70;;;;;;6267724;28;20086;-74
2022/07/27 07:01:01;;;;;;;3.60;1.20;;;26.00;38.50;;;;;;6263597;28;20042;-74
2022/07/27 07:04:02;;;;;;;3.28;1.15;;;26.20;38.10;;;;;;6263268;28;20045;-76
2022/07/27 07:07:04;;;;;;;3.05;0.80;;;26.50;37.70;;;;;;6247418;28;20638;-76
2022/07/27 07:10:06;;;;;;;3.88;1.02;;;26.70;37.40;;;;;;6241270;28;20099;-76
2022/07/27 07:13:08;;;;;;;7.43;0.98;;;26.80;37.00;;;;;;6249592;28;20033;-75
2022/07/27 07:16:09;;;;;;;3.00;0.68;;;27.00;36.90;;;;;;6269599;28;20382;-76
2022/07/27 07:19:09;;;;;;;2.65;0.90;;;27.10;36.70;;;;;;6268477;28;20037;-77
2022/07/27 07:22:11;;;;;;;1.88;0.80;;;27.10;36.40;;;;;;6250950;28;20085;-76
2022/07/27 07:25:11;;;;;;;3.65;0.80;;;27.00;36.40;;;;;;6267768;28;20504;-76
2022/07/27 07:28:13;;;;;;;2.28;0.95;;;27.10;36.40;;;;;;6268005;28;20366;-76
2022/07/27 07:31:15;;;;;;;3.85;0.90;;;27.10;36.20;;;;;;6268047;28;20075;-76
2022/07/27 07:34:16;;;;;;;6.07;0.60;;;27.10;36.00;;;;;;6264974;28;20132;-76
2022/07/27 07:37:18;;;;;;;1.63;1.00;;;27.10;36.00;;;;;;6268999;28;20037;-76
2022/07/27 07:40:19;;;;;;;1.60;0.85;;;27.10;36.00;;;;;;6258143;28;20033;-75
2022/07/27 07:43:20;;;;;;;2.47;1.13;;;27.10;35.90;;;;;;6272335;28;20048;-76
2022/07/27 07:46:21;;;;;;;2.17;0.85;;;27.20;35.80;;;;;;6272503;28;20072;-76
2022/07/27 07:49:22;;;;;;;2.38;1.02;;;27.30;35.60;;;;;;6271970;28;20449;-76
2022/07/27 07:52:23;;;;;;;2.50;0.90;;;27.40;35.50;;;;;;6271755;28;20041;-75
2022/07/27 07:55:28;;;;;;;0.90;0.73;;;27.60;35.20;;;;;;6271314;28;20102;-76
2022/07/27 07:58:30;;;;;;;0.80;0.80;;;27.70;35.00;;;;;;6272121;28;20364;-77
2022/07/27 08:01:31;;;;;;;3.05;0.85;;;27.80;34.80;;;;;;6271797;28;20033;-75
2022/07/27 08:04:32;;;;;;;3.35;1.17;;;27.90;34.60;;;;;;6271466;28;20045;-76
2022/07/27 08:07:34;;;;;;;2.60;0.90;;;28.00;34.50;;;;;;6253603;28;20043;-75
2022/07/27 08:10:35;;;;;;;1.63;0.77;;;28.10;34.40;;;;;;6253367;28;20079;-75
2022/07/27 08:13:36;;;;;;;3.38;0.85;;;28.10;34.20;;;;;;6269777;28;20478;-75
2022/07/27 08:16:40;;;;;;;0.60;0.60;;;28.10;34.10;;;;;;6271196;28;20044;-76
2022/07/27 08:19:41;;;;;;;3.15;0.82;;;28.10;34.10;;;;;;6271047;28;20174;-76
2022/07/27 08:22:43;;;;;;;5.28;0.90;;;28.10;34.20;;;;;;6267590;28;20053;-76
2022/07/27 08:25:44;;;;;;;6.32;0.73;;;28.10;34.20;;;;;;6254822;28;20321;-76
2022/07/27 08:28:45;;;;;;;0.90;0.65;;;28.10;34.10;;;;;;6271439;28;20044;-77
2022/07/27 08:31:47;;;;;;;1.95;0.80;;;28.10;34.30;;;;;;6254460;28;20176;-76
2022/07/27 08:34:48;;;;;;;4.63;0.80;;;28.10;34.10;;;;;;6253491;28;20412;-75
2022/07/27 08:37:49;;;;;;;2.50;0.75;;;28.20;34.10;;;;;;6246422;28;20489;-76
2022/07/27 08:40:50;;;;;;;2.10;0.90;;;28.20;34.00;;;;;;6269709;28;20029;-76
2022/07/27 08:43:53;;;;;;;1.73;1.00;;;28.20;34.00;;;;;;6239853;28;20435;-76
2022/07/27 08:46:56;;;;;;;5.55;0.90;;;28.20;34.60;;;;;;6261556;28;20044;-74
2022/07/27 08:49:57;;;;;;;2.65;1.10;;;28.20;34.00;;;;;;6260238;28;20052;-76
2022/07/27 08:53:05;;;;;;;2.97;1.00;;;28.20;34.00;;;;;;6237802;28;20029;-76
2022/07/27 08:56:05;;;;;;;1.63;0.98;;;28.30;34.00;;;;;;6259112;28;20048;-76
2022/07/27 08:59:06;;;;;;;5.53;1.15;;;28.50;33.90;;;;;;6266832;28;20361;-75
2022/07/27 09:02:13;;;;;;;8.80;1.58;;;28.60;33.70;;;;;;6269080;28;20056;-76
2022/07/27 09:05:15;;;;;;;4.00;1.05;;;28.70;33.60;;;;;;6268303;28;20040;-76
2022/07/27 09:08:20;;;;;;;2.03;1.10;;;28.80;33.50;;;;;;6268003;28;20453;-75
2022/07/27 09:11:21;;;;;;;3.10;1.08;;;28.90;33.40;;;;;;6251773;28;20055;-76
2022/07/27 09:14:30;;;;;;;1.73;0.93;;;29.00;33.30;;;;;;6250546;28;20470;-75
2022/07/27 09:17:31;;;;;;;3.20;0.90;;;29.00;33.20;;;;;;6252642;28;20040;-75
2022/07/27 09:20:32;;;;;;;3.33;1.00;;;29.00;33.10;;;;;;6269910;28;20037;-75
2022/07/27 09:23:33;;;;;;;3.05;1.27;;;29.00;33.00;;;;;;6270149;28;20045;-75
2022/07/27 09:26:35;;;;;;;1.35;1.00;;;29.00;33.10;;;;;;6252727;28;20455;-76
2022/07/27 09:29:36;;;;;;;1.83;1.05;;;29.00;33.20;;;;;;6266150;28;20448;-75
2022/07/27 09:32:38;;;;;;;6.88;1.60;;;29.00;33.10;;;;;;6269701;28;20025;-75
2022/07/27 09:35:40;;;;;;;2.20;0.90;;;29.10;33.00;;;;;;6270146;28;20346;-76
2022/07/27 09:39:04;;;;;;;1.10;1.00;;;29.20;32.80;;;;;;6276695;28;20649;-75
2022/07/27 09:42:05;;;;;;;3.38;0.73;;;29.20;32.90;;;;;;6248954;28;20032;-76
2022/07/27 09:45:30;;;;;;;10.95;1.05;;;29.30;32.70;;;;;;6237845;28;20045;-76
2022/07/27 09:48:35;;;;;;;2.75;1.15;;;29.30;32.70;;;;;;6256929;28;20041;-75
2022/07/27 09:51:44;;;;;;;3.47;1.00;;;29.30;32.60;;;;;;6242793;28;20044;-76
2022/07/27 09:54:46;;;;;;;1.75;0.93;;;29.30;32.50;;;;;;6242678;28;20029;-77
2022/07/27 09:57:55;;;;;;;5.78;0.90;;;29.30;32.60;;;;;;6240474;28;20390;-77
2022/07/27 10:00:56;;;;;;;4.43;1.00;;;29.40;32.50;;;;;;6257857;28;20655;-77
2022/07/27 10:04:02;;;;;;;2.20;1.10;;;29.40;32.40;;;;;;6243431;28;20033;-76
2022/07/27 10:07:04;;;;;;;1.65;1.20;;;29.50;32.40;;;;;;6264994;28;20401;-76
2022/07/27 10:10:05;;;;;;;3.78;1.00;;;29.50;32.30;;;;;;6250930;28;20481;-75
2022/07/27 10:13:06;;;;;;;4.88;1.00;;;29.50;32.20;;;;;;6265295;28;20361;-75
2022/07/27 10:16:16;;;;;;;4.75;1.13;;;29.60;32.20;;;;;;6266557;28;20064;-75
2022/07/27 10:19:30;;;;;;;1.95;1.05;;;29.70;32.20;;;;;;6267565;28;20052;-76
2022/07/27 10:22:57;;;;;;;2.53;1.00;;;29.70;32.00;;;;;;6254758;28;20099;-76
2022/07/27 10:26:19;;;;;;;4.00;1.10;;;29.70;32.00;;;;;;6227492;28;20048;-76
2022/07/27 10:29:21;;;;;;;3.75;1.20;;;29.70;32.00;;;;;;6223237;28;20080;-75
2022/07/27 10:32:31;;;;;;;13.40;1.35;;;29.70;31.90;;;;;;6228514;28;20476;-76
2022/07/27 10:35:34;;;;;;;3.08;1.30;;;29.80;31.90;;;;;;6229753;28;20089;-77
2022/07/27 10:38:49;;;;;;;2.88;1.48;;;29.80;31.70;;;;;;6247301;28;20025;-75
2022/07/27 10:41:50;;;;;;;2.40;1.13;;;29.90;31.80;;;;;;6241058;28;20080;-75
2022/07/27 10:45:05;;;;;;;2.58;1.05;;;30.00;31.60;;;;;;6255083;28;20110;-75
2022/07/27 10:48:06;;;;;;;2.38;1.33;;;30.00;31.60;;;;;;6254638;28;20033;-75
2022/07/27 10:51:08;;;;;;;9.02;1.33;;;30.10;31.50;;;;;;6265655;28;20414;-75
2022/07/27 10:54:25;;;;;;;2.20;1.08;;;30.20;31.40;;;;;;6281308;28;20358;-76
2022/07/27 10:57:26;;;;;;;1.08;0.88;;;30.20;31.30;;;;;;6265047;28;20067;-75
2022/07/27 11:00:49;;;;;;;2.25;1.00;;;30.30;31.10;;;;;;6264432;28;20059;-75
2022/07/27 11:03:52;;;;;;;4.30;1.10;;;30.30;31.00;;;;;;6249389;28;20041;-81
2022/07/27 11:06:59;;;;;;;4.32;1.02;;;30.60;30.60;;;;;;6262932;28;20135;-76
2022/07/27 11:10:00;;;;;;;2.70;1.35;;;31.20;29.80;;;;;;6249298;28;20080;-77
2022/07/27 11:13:03;;;;;;;2.47;1.13;;;32.00;29.20;;;;;;6265488;28;20035;-77
2022/07/27 11:16:06;;;;;;;1.95;1.10;;;32.60;28.50;;;;;;6269172;28;20453;-81
2022/07/27 11:19:07;;;;;;;2.08;0.73;;;33.00;27.80;;;;;;6252889;28;20080;-75
2022/07/27 11:22:09;;;;;;;1.45;1.08;;;33.30;27.30;;;;;;6265225;28;20040;-77
2022/07/27 11:25:10;;;;;;;2.53;0.90;;;33.50;27.10;;;;;;6222372;28;20087;-77
2022/07/27 11:28:11;;;;;;;2.22;0.90;;;33.60;27.00;;;;;;6247280;28;20033;-77
2022/07/27 11:31:13;;;;;;;2.80;1.00;;;33.80;26.70;;;;;;6245431;28;20045;-77
2022/07/27 11:34:16;;;;;;;4.90;2.05;;;34.00;26.40;;;;;;6251970;28;20347;-77
2022/07/27 11:37:21;;;;;;;4.40;1.23;;;34.10;26.10;;;;;;6268503;28;20116;-77
2022/07/27 11:40:22;;;;;;;4.20;1.25;;;34.20;26.20;;;;;;6251123;28;20089;-77
2022/07/27 11:43:41;;;;;;;3.10;1.30;;;34.40;26.00;;;;;;6244560;28;20049;-77
2022/07/27 11:46:44;;;;;;;2.67;1.10;;;34.60;25.80;;;;;;6259292;28;20111;-77
2022/07/27 11:49:45;;;;;;;3.67;1.23;;;34.80;25.70;;;;;;6227766;28;20122;-78
2022/07/27 11:52:55;;;;;;;4.03;1.23;;;34.60;25.60;;;;;;6242660;28;20037;-77
2022/07/27 11:55:56;;;;;;;5.45;1.13;;;34.50;25.70;;;;;;6244380;28;20042;-76
2022/07/27 11:59:01;;;;;;;1.20;0.90;;;34.40;25.80;;;;;;6246498;28;20044;-78
2022/07/27 12:02:06;;;;;;;2.70;1.02;;;34.40;25.80;;;;;;6231814;28;20085;-77
2022/07/27 12:05:10;;;;;;;5.15;1.20;;;34.50;25.80;;;;;;6253467;28;20071;-77
2022/07/27 12:08:11;;;;;;;4.70;1.20;;;34.60;25.70;;;;;;6253986;28;20478;-77
2022/07/27 12:11:15;;;;;;;5.70;1.05;;;34.80;25.50;;;;;;6253351;28;20446;-79
2022/07/27 12:14:18;;;;;;;5.88;1.10;;;34.90;25.30;;;;;;6255068;28;20036;-79
2022/07/27 12:17:41;;;;;;;3.67;0.88;;;35.00;25.20;;;;;;6262682;28;20040;-78
2022/07/27 12:20:47;;;;;;;3.72;0.98;;;35.10;25.10;;;;;;6269358;28;20523;-78
2022/07/27 12:23:52;;;;;;;10.02;0.90;;;35.20;24.80;;;;;;6265773;28;20078;-77
2022/07/27 12:27:10;;;;;;;2.15;1.08;;;35.30;24.70;;;;;;6249598;28;20131;-76
2022/07/27 12:30:14;;;;;;;2.60;0.90;;;35.40;24.70;;;;;;6268710;28;20099;-76
2022/07/27 12:33:36;;;;;;;1.65;0.98;;;35.70;24.30;;;;;;6250513;28;20044;-77
2022/07/27 12:36:40;;;;;;;4.07;0.98;;;35.90;24.10;;;;;;6261837;28;20060;-78
2022/07/27 12:39:44;;;;;;;3.90;0.90;;;36.10;24.10;;;;;;6264760;28;20053;-77
2022/07/27 12:42:45;;;;;;;4.65;0.90;;;36.20;23.80;;;;;;6283141;28;20124;-77
2022/07/27 12:45:48;;;;;;;2.03;1.00;;;36.30;23.50;;;;;;6250819;28;20154;-77
2022/07/27 12:48:48;;;;;;;4.93;1.00;;;36.40;23.40;;;;;;6269546;28;20029;-79
2022/07/27 12:51:50;;;;;;;5.40;1.42;;;36.30;23.30;;;;;;6267282;28;20095;-77
2022/07/27 12:54:51;;;;;;;3.17;1.05;;;36.50;23.30;;;;;;6253186;28;20032;-81
2022/07/27 12:57:55;;;;;;;14.77;1.75;;;36.60;23.00;;;;;;6268260;28;20377;-76
2022/07/27 13:00:56;;;;;;;3.45;1.10;;;36.90;22.80;;;;;;6266904;28;20037;-76
2022/07/27 13:03:57;;;;;;;1.90;1.13;;;37.00;22.60;;;;;;6268056;28;20061;-76
2022/07/27 13:06:59;;;;;;;4.07;1.08;;;37.20;22.50;;;;;;6269011;28;20033;-73
2022/07/27 13:10:00;;;;;;;2.97;1.00;;;37.50;22.20;;;;;;6268581;28;20365;-77
2022/07/27 13:13:03;;;;;;;2.10;0.90;;;37.80;22.00;;;;;;6271361;28;20425;-77
2022/07/27 13:16:04;;;;;;;4.80;1.02;;;37.90;21.90;;;;;;6245812;28;20068;-77
2022/07/27 13:19:06;;;;;;;7.78;1.02;;;38.20;21.60;;;;;;6246306;28;20424;-78
2022/07/27 13:22:07;;;;;;;7.07;1.10;;;38.30;21.50;;;;;;6256038;28;20045;-79
2022/07/27 13:25:09;;;;;;;3.53;0.95;;;38.70;21.30;;;;;;6268030;28;20541;-75
2022/07/27 13:28:11;;;;;;;2.05;1.00;;;39.10;21.00;;;;;;6240153;28;20477;-75
2022/07/27 13:31:12;;;;;;;1.70;0.85;;;39.40;20.60;;;;;;6243825;28;20033;-75
2022/07/27 13:34:16;;;;;;;1.88;0.82;;;39.60;20.40;;;;;;6225767;28;20554;-74
2022/07/27 13:37:17;;;;;;;14.32;1.75;;;40.00;20.10;;;;;;6256111;28;20028;-76
2022/07/27 13:40:19;;;;;;;9.20;0.88;;;40.20;19.90;;;;;;6263621;28;20587;-76
2022/07/27 13:43:19;;;;;;;2.88;0.77;;;40.60;19.60;;;;;;6250277;28;20120;-76
2022/07/27 13:46:20;;;;;;;3.60;1.20;;;41.10;19.20;;;;;;6265976;28;20073;-75
2022/07/27 13:49:22;;;;;;;1.65;1.10;;;41.20;19.00;;;;;;6265724;28;20415;-77
2022/07/27 13:52:23;;;;;;;2.35;0.90;;;41.40;18.90;;;;;;6247074;28;20354;-77
2022/07/27 13:55:24;;;;;;;1.67;1.00;;;41.50;18.70;;;;;;6248124;28;20033;-75
2022/07/27 13:58:25;;;;;;;3.70;1.00;;;41.60;18.60;;;;;;6263839;28;20032;-75
2022/07/27 14:01:27;;;;;;;2.40;1.10;;;41.60;18.60;;;;;;6267505;28;20359;-74
2022/07/27 14:04:28;;;;;;;1.38;1.00;;;41.70;18.60;;;;;;6266130;28;21329;-74
2022/07/27 14:07:29;;;;;;;5.05;0.90;;;41.70;18.40;;;;;;6264962;28;20037;-76
2022/07/27 14:10:30;;;;;;;5.03;1.10;;;42.00;18.40;;;;;;6239537;28;20061;-76
2022/07/27 14:13:32;;;;;;;3.13;1.25;;;42.20;18.10;;;;;;6266020;28;20040;-75
2022/07/27 14:16:33;;;;;;;4.97;0.88;;;42.40;17.90;;;;;;6246840;28;20033;-77
2022/07/27 14:19:35;;;;;;;2.55;0.80;;;42.60;17.90;;;;;;6246920;28;20049;-75
2022/07/27 14:22:36;;;;;;;4.05;1.30;;;42.90;17.70;;;;;;6265385;28;20052;-75
2022/07/27 14:25:37;;;;;;;3.00;1.10;;;43.00;17.40;;;;;;6249689;28;20164;-75
2022/07/27 14:28:40;;;;;;;2.55;1.40;;;42.80;17.40;;;;;;6266556;28;20049;-75
2022/07/27 14:31:40;;;;;;;2.65;0.90;;;42.80;17.50;;;;;;6268301;28;20037;-75
2022/07/27 14:34:41;;;;;;;1.73;1.00;;;42.90;17.30;;;;;;6272406;28;20055;-76
2022/07/27 14:37:42;;;;;;;9.23;1.23;;;42.80;17.30;;;;;;6270639;28;20446;-74
2022/07/27 14:40:43;;;;;;;3.95;1.13;;;42.80;17.40;;;;;;6278040;28;20043;-78
2022/07/27 14:43:44;;;;;;;1.90;0.80;;;43.10;17.20;;;;;;6255103;28;20113;-74
2022/07/27 14:46:45;;;;;;;2.45;1.73;;;43.00;17.10;;;;;;6249802;28;20144;-75
2022/07/27 14:49:46;;;;;;;5.72;1.02;;;42.70;17.30;;;;;;6269590;28;20060;-75
2022/07/27 14:52:48;;;;;;;1.35;0.90;;;42.70;17.30;;;;;;6269815;28;20053;-74
2022/07/27 14:55:49;;;;;;;2.20;0.93;;;42.60;17.30;;;;;;6254376;28;20433;-75
2022/07/27 14:58:50;;;;;;;3.53;0.73;;;42.40;17.30;;;;;;6253009;28;20850;-75
2022/07/27 15:01:51;;;;;;;3.83;0.93;;;42.10;17.60;;;;;;6270353;28;20132;-75
2022/07/27 15:04:52;;;;;;;2.75;0.90;;;41.10;18.30;;;;;;6269883;28;20124;-75
2022/07/27 15:07:54;;;;;;;4.05;1.00;;;39.90;19.20;;;;;;6268747;28;20103;-77
2022/07/27 15:10:56;;;;;;;1.08;0.80;;;38.90;20.00;;;;;;6261968;28;20418;-76
2022/07/27 15:13:57;;;;;;;1.60;0.93;;;38.00;20.70;;;;;;6240892;28;20068;-74
2022/07/27 15:16:58;;;;;;;3.50;0.98;;;37.20;21.40;;;;;;6247180;28;20057;-75
2022/07/27 15:19:59;;;;;;;6.55;1.10;;;36.50;22.10;;;;;;6228537;28;20048;-74
2022/07/27 15:23:02;;;;;;;3.10;1.00;;;35.80;22.60;;;;;;6259540;28;20044;-74
2022/07/27 15:26:03;;;;;;;4.72;1.50;;;35.40;23.20;;;;;;6253849;28;20485;-76
2022/07/27 15:29:04;;;;;;;1.00;0.93;;;35.20;23.40;;;;;;6267346;28;20112;-75
2022/07/27 15:32:08;;;;;;;3.10;1.00;;;36.00;22.90;;;;;;6253926;28;20086;-75
2022/07/27 15:35:09;;;;;;;3.22;0.85;;;37.10;22.00;;;;;;6272550;28;20049;-75
2022/07/27 15:38:10;;;;;;;2.08;1.08;;;38.10;21.20;;;;;;6271467;28;20045;-75
2022/07/27 15:41:11;;;;;;;5.60;1.05;;;38.90;20.60;;;;;;6272532;28;20438;-77
2022/07/27 15:44:18;;;;;;;1.60;0.77;;;39.60;20.00;;;;;;6238647;28;20029;-77
2022/07/27 15:47:19;;;;;;;8.88;1.45;;;40.00;19.60;;;;;;6231054;28;20061;-77
2022/07/27 15:50:20;;;;;;;6.93;0.90;;;40.10;19.30;;;;;;6268486;28;20045;-75